Time;durP1;ratioP1;P1;durP2;ratioP2;P2;SDS_P1;SDS_P2;PMS_P1;PMS_P2;Temp;Humidity;BMP_temperature;BMP_pressure;BME280_temperature;BME280_humidity;BME280_pressure;Samples;Min_cycle;Max_cycle;Signal;HPM_P1;HPM_P2
2024/02/09 00:00:57;;;;;;;2.28;1.67;;;3.00;99.90;;;;;;5012447;28;20705;-74
2024/02/09 00:03:26;;;;;;;2.13;1.55;;;3.00;99.90;;;;;;5028422;28;20497;-72
2024/02/09 00:05:52;;;;;;;2.15;1.60;;;3.00;99.90;;;;;;5015635;28;20033;-74
2024/02/09 00:08:21;;;;;;;1.92;1.45;;;3.00;99.90;;;;;;5027374;28;20112;-73
2024/02/09 00:10:48;;;;;;;2.22;1.50;;;3.00;99.90;;;;;;5019705;28;20116;-73
2024/02/09 00:13:14;;;;;;;1.77;1.17;;;3.00;99.90;;;;;;5023592;28;20546;-76
2024/02/09 00:15:45;;;;;;;1.50;1.13;;;3.00;99.90;;;;;;5013448;28;20053;-72
2024/02/09 00:18:12;;;;;;;1.10;0.95;;;3.10;99.90;;;;;;5028290;28;20026;-73
2024/02/09 00:20:38;;;;;;;1.00;0.87;;;3.10;99.90;;;;;;5025790;28;20044;-74
2024/02/09 00:23:04;;;;;;;1.20;0.80;;;3.10;99.90;;;;;;5032284;28;20033;-76
2024/02/09 00:25:30;;;;;;;1.70;1.00;;;3.10;99.90;;;;;;5008845;28;20035;-73
2024/02/09 00:27:56;;;;;;;1.27;0.77;;;3.10;99.90;;;;;;5030822;28;20038;-72
2024/02/09 00:30:21;;;;;;;0.60;0.55;;;3.10;99.90;;;;;;5021071;28;20033;-72
2024/02/09 00:32:47;;;;;;;0.95;0.75;;;3.10;99.90;;;;;;5026464;28;20092;-73
2024/02/09 00:35:13;;;;;;;1.17;0.90;;;3.10;99.90;;;;;;5030477;28;20136;-73
2024/02/09 00:37:38;;;;;;;1.33;0.43;;;3.10;99.90;;;;;;5021758;28;20650;-75
2024/02/09 00:40:07;;;;;;;0.50;0.50;;;3.10;99.90;;;;;;5027414;28;20118;-74
2024/02/09 00:42:38;;;;;;;0.70;0.68;;;3.10;99.90;;;;;;5029205;28;20025;-73
2024/02/09 00:45:03;;;;;;;0.60;0.55;;;3.10;99.90;;;;;;5030325;28;20029;-74
2024/02/09 00:47:30;;;;;;;0.70;0.60;;;3.10;99.90;;;;;;5026457;28;20462;-73
2024/02/09 00:49:57;;;;;;;1.45;1.00;;;3.20;99.90;;;;;;5009384;28;20937;-73
2024/02/09 00:52:23;;;;;;;0.90;0.75;;;3.10;99.90;;;;;;5025766;28;20104;-72
2024/02/09 00:54:50;;;;;;;1.15;1.02;;;3.10;99.90;;;;;;5010983;28;20109;-74
2024/02/09 00:57:16;;;;;;;1.07;0.60;;;3.10;99.90;;;;;;5023588;28;20721;-73
2024/02/09 00:59:43;;;;;;;1.10;0.70;;;3.10;99.90;;;;;;5027052;28;20021;-73
2024/02/09 01:02:09;;;;;;;0.73;0.70;;;3.20;99.90;;;;;;5029956;28;20076;-75
2024/02/09 01:04:35;;;;;;;1.10;0.90;;;3.20;99.90;;;;;;5027876;28;20900;-73
2024/02/09 01:07:03;;;;;;;0.95;0.75;;;3.20;99.90;;;;;;5026651;28;20028;-76
2024/02/09 01:09:29;;;;;;;1.70;0.90;;;3.20;99.90;;;;;;5023717;28;20040;-74
2024/02/09 01:11:55;;;;;;;1.60;0.80;;;3.20;99.90;;;;;;5031277;28;20038;-74
2024/02/09 02:44:53;;;;;;;3.78;2.50;;;3.40;99.90;;;;;;5030043;28;20061;-74
2024/02/09 02:47:19;;;;;;;3.95;2.70;;;3.40;99.90;;;;;;5032069;28;20060;-74
2024/02/09 03:06:11;;;;;;;4.53;2.80;;;3.30;99.90;;;;;;5034388;28;20079;-74
2024/02/09 03:08:36;;;;;;;4.50;2.63;;;3.30;99.90;;;;;;5027298;28;20401;-74
2024/02/09 03:11:03;;;;;;;5.65;3.28;;;3.30;99.90;;;;;;5027936;28;20041;-73
2024/02/09 03:13:29;;;;;;;7.17;3.20;;;3.30;99.90;;;;;;5020065;28;20035;-74
2024/02/09 03:15:55;;;;;;;4.18;2.78;;;3.30;99.90;;;;;;5026843;28;20068;-73
2024/02/09 03:18:22;;;;;;;3.10;2.50;;;3.30;99.90;;;;;;5023034;28;20465;-73
2024/02/09 03:20:48;;;;;;;4.75;3.00;;;3.30;99.90;;;;;;5020429;28;20716;-77
2024/02/09 03:23:17;;;;;;;4.38;2.88;;;3.20;99.90;;;;;;5025366;28;20038;-76
2024/02/09 03:25:42;;;;;;;4.57;2.95;;;3.30;99.90;;;;;;5026390;28;20040;-75
2024/02/09 03:28:08;;;;;;;5.18;3.08;;;3.30;99.90;;;;;;5031904;28;20041;-74
2024/02/09 03:30:34;;;;;;;3.95;2.58;;;3.30;99.90;;;;;;5029828;28;20029;-73
2024/02/09 03:33:00;;;;;;;5.53;3.20;;;3.30;99.90;;;;;;5027595;28;20025;-72
2024/02/09 03:35:25;;;;;;;3.97;2.75;;;3.30;99.90;;;;;;5031243;28;20022;-72
2024/02/09 03:37:51;;;;;;;4.55;2.75;;;3.30;99.90;;;;;;5010708;28;20022;-73
2024/02/09 03:40:16;;;;;;;5.05;3.08;;;3.30;99.90;;;;;;5027427;28;20112;-72
2024/02/09 03:42:43;;;;;;;3.55;2.72;;;3.30;99.90;;;;;;5030648;28;20035;-73
2024/02/09 03:45:08;;;;;;;4.72;2.88;;;3.30;99.90;;;;;;5023699;28;20184;-74
2024/02/09 03:47:34;;;;;;;4.15;2.70;;;3.30;99.90;;;;;;5030643;28;20125;-73
2024/02/09 03:50:00;;;;;;;4.95;2.47;;;3.30;99.90;;;;;;5007152;28;20040;-72
2024/02/09 03:52:27;;;;;;;3.78;2.03;;;3.30;99.90;;;;;;5028459;28;20041;-73
2024/02/09 03:54:54;;;;;;;3.50;2.38;;;3.30;99.90;;;;;;5028853;28;20117;-73
2024/02/09 03:57:27;;;;;;;7.00;3.03;;;3.30;99.90;;;;;;5012457;28;20471;-72
2024/02/09 03:59:54;;;;;;;4.38;2.67;;;3.30;99.90;;;;;;5029314;28;20056;-72
2024/02/09 04:02:21;;;;;;;3.97;2.78;;;3.30;99.90;;;;;;5028727;28;20033;-74
2024/02/09 04:04:47;;;;;;;8.43;3.40;;;3.30;99.90;;;;;;5033027;28;20033;-75
2024/02/09 04:07:20;;;;;;;6.07;3.42;;;3.30;99.90;;;;;;5034207;28;20122;-72
2024/02/09 04:09:47;;;;;;;7.00;3.22;;;3.30;99.90;;;;;;5033605;28;20329;-73
2024/02/09 04:12:12;;;;;;;7.55;3.95;;;3.30;99.90;;;;;;5033415;28;20033;-73
2024/02/09 04:14:38;;;;;;;6.50;3.60;;;3.30;99.90;;;;;;5024274;28;20029;-73
2024/02/09 04:17:06;;;;;;;5.55;3.60;;;3.30;99.90;;;;;;5030202;28;20608;-73
2024/02/09 04:19:34;;;;;;;6.60;3.47;;;3.40;99.90;;;;;;5027740;28;20025;-72
2024/02/09 04:22:00;;;;;;;7.53;3.78;;;3.40;99.90;;;;;;5016916;28;20029;-73
2024/02/09 04:24:26;;;;;;;7.07;4.05;;;3.40;99.90;;;;;;5016946;28;20066;-73
2024/02/09 04:26:54;;;;;;;7.43;3.78;;;3.40;99.90;;;;;;5028203;28;20076;-72
2024/02/09 04:29:23;;;;;;;5.85;4.05;;;3.40;99.90;;;;;;5036656;28;20033;-73
2024/02/09 04:31:52;;;;;;;6.43;3.80;;;3.40;99.90;;;;;;5028107;28;20030;-74
2024/02/09 04:34:18;;;;;;;6.53;4.07;;;3.40;99.90;;;;;;5024085;28;20032;-73
2024/02/09 04:36:50;;;;;;;6.75;3.53;;;3.40;99.90;;;;;;5025565;28;20064;-73
2024/02/09 04:39:16;;;;;;;7.68;3.88;;;3.40;99.90;;;;;;5025495;28;20033;-72
2024/02/09 04:41:43;;;;;;;7.95;4.15;;;3.40;99.90;;;;;;5025592;28;20536;-77
2024/02/09 04:44:09;;;;;;;7.78;4.00;;;3.40;99.90;;;;;;5025130;28;20025;-75
2024/02/09 04:46:35;;;;;;;8.02;4.35;;;3.40;99.90;;;;;;5030820;28;20037;-75
2024/02/09 04:49:06;;;;;;;9.82;4.22;;;3.40;99.90;;;;;;5026547;28;20033;-74
2024/02/09 04:51:35;;;;;;;8.60;4.35;;;3.40;99.90;;;;;;5026364;28;20501;-73
2024/02/09 04:54:01;;;;;;;9.60;5.32;;;3.40;99.90;;;;;;5029762;28;20155;-73
2024/02/09 04:56:32;;;;;;;8.48;4.50;;;3.50;99.90;;;;;;5026183;28;20132;-72
2024/02/09 04:59:04;;;;;;;7.35;4.28;;;3.50;99.90;;;;;;5025116;28;20030;-72
2024/02/09 05:01:31;;;;;;;10.25;5.03;;;3.50;99.90;;;;;;5030659;28;20520;-73
2024/02/09 05:03:58;;;;;;;10.73;5.00;;;3.50;99.90;;;;;;5025087;28;20101;-74
2024/02/09 05:06:26;;;;;;;11.15;5.53;;;3.50;99.90;;;;;;5025822;28;20405;-73
2024/02/09 05:08:53;;;;;;;10.05;4.97;;;3.50;99.90;;;;;;5025501;28;20018;-73
2024/02/09 05:11:21;;;;;;;10.63;5.20;;;3.60;99.90;;;;;;5031403;28;20033;-73
2024/02/09 05:13:48;;;;;;;9.15;5.20;;;3.60;99.90;;;;;;5023380;28;20632;-74
2024/02/09 05:16:14;;;;;;;9.77;5.28;;;3.60;99.90;;;;;;5028664;28;20116;-75
2024/02/09 05:18:39;;;;;;;10.00;5.22;;;3.60;99.90;;;;;;5030167;28;20538;-72
2024/02/09 05:21:05;;;;;;;10.10;5.40;;;3.60;99.90;;;;;;5028026;28;20030;-76
2024/02/09 05:23:32;;;;;;;9.80;5.22;;;3.60;99.90;;;;;;5032909;28;20037;-73
2024/02/09 05:25:58;;;;;;;10.77;5.20;;;3.60;99.90;;;;;;5025619;28;20413;-72
2024/02/09 05:28:23;;;;;;;10.95;5.60;;;3.60;99.90;;;;;;5040268;28;20041;-75
2024/02/09 05:30:49;;;;;;;14.90;5.95;;;3.60;99.90;;;;;;5027263;28;20628;-73
2024/02/09 05:33:16;;;;;;;11.80;6.15;;;3.60;99.90;;;;;;5030513;28;20389;-73
2024/02/09 05:35:42;;;;;;;12.40;5.50;;;3.60;99.90;;;;;;5025935;28;20029;-73
2024/02/09 05:38:08;;;;;;;10.35;5.50;;;3.60;99.90;;;;;;5019928;28;20111;-73
2024/02/09 05:40:33;;;;;;;11.35;5.47;;;3.60;99.90;;;;;;5029509;28;20030;-75
2024/02/09 05:42:59;;;;;;;13.07;6.35;;;3.70;99.90;;;;;;5038312;28;20522;-72
2024/02/09 05:45:26;;;;;;;13.68;6.47;;;3.70;99.90;;;;;;5027394;28;20024;-72
2024/02/09 05:47:52;;;;;;;9.32;5.57;;;3.70;99.90;;;;;;5032670;28;20390;-75
2024/02/09 05:50:20;;;;;;;11.05;5.90;;;3.70;99.90;;;;;;5025219;28;20517;-75
2024/02/09 05:52:46;;;;;;;11.32;5.90;;;3.70;99.90;;;;;;5009781;28;20018;-73
2024/02/09 05:55:12;;;;;;;12.07;5.78;;;3.70;99.90;;;;;;5011676;28;20033;-73
2024/02/09 05:57:38;;;;;;;13.27;6.55;;;3.80;99.90;;;;;;5025132;28;20037;-72
2024/02/09 06:00:06;;;;;;;11.95;5.78;;;3.80;99.90;;;;;;5027796;28;20029;-74
2024/02/09 06:02:32;;;;;;;16.65;7.75;;;3.70;99.90;;;;;;5024160;28;20025;-74
2024/02/09 06:05:00;;;;;;;14.48;7.20;;;3.70;99.90;;;;;;5023790;28;20041;-74
2024/02/09 06:07:27;;;;;;;14.70;7.05;;;3.70;99.90;;;;;;5002674;28;20033;-74
2024/02/09 06:09:52;;;;;;;14.77;6.37;;;3.80;99.90;;;;;;5020407;28;20033;-74
2024/02/09 06:12:18;;;;;;;15.82;6.60;;;3.80;99.90;;;;;;5018306;28;20287;-74
2024/02/09 06:14:44;;;;;;;11.65;6.20;;;3.90;99.90;;;;;;5028047;28;20036;-73
2024/02/09 06:17:12;;;;;;;11.77;6.28;;;3.80;99.90;;;;;;5033771;28;20060;-74
2024/02/09 06:19:40;;;;;;;14.90;6.55;;;3.80;99.90;;;;;;5026440;28;20022;-75
2024/02/09 06:22:06;;;;;;;13.57;6.63;;;3.80;99.90;;;;;;5048049;28;20079;-73
2024/02/09 06:24:32;;;;;;;13.20;6.65;;;3.80;99.90;;;;;;5009200;28;20022;-75
2024/02/09 06:26:58;;;;;;;14.57;6.40;;;3.90;99.90;;;;;;5006709;28;20036;-74
2024/02/09 06:29:24;;;;;;;13.75;6.88;;;3.80;99.90;;;;;;5014471;28;20071;-72
2024/02/09 06:31:56;;;;;;;14.35;6.75;;;3.80;99.90;;;;;;5026031;28;20107;-71
2024/02/09 06:34:22;;;;;;;13.77;6.47;;;3.90;99.90;;;;;;5010369;28;20036;-74
2024/02/09 06:36:48;;;;;;;16.35;6.13;;;3.90;99.90;;;;;;5021935;28;20038;-79
2024/02/09 06:39:14;;;;;;;13.60;7.00;;;3.90;99.90;;;;;;5028253;28;20401;-74
2024/02/09 06:41:39;;;;;;;13.93;6.80;;;3.90;99.90;;;;;;5023400;28;20025;-74
2024/02/09 06:44:05;;;;;;;14.32;6.32;;;3.90;99.90;;;;;;5023342;28;20022;-73
2024/02/09 06:46:30;;;;;;;13.88;7.18;;;4.00;99.90;;;;;;5027479;28;20037;-72
2024/02/09 06:48:56;;;;;;;14.75;7.05;;;4.00;99.90;;;;;;5023156;28;20690;-74
2024/02/09 06:51:22;;;;;;;16.63;7.32;;;4.00;99.90;;;;;;5028730;28;20036;-74
2024/02/09 06:53:48;;;;;;;13.05;6.53;;;4.00;99.90;;;;;;5022217;28;20572;-73
2024/02/09 06:56:14;;;;;;;18.02;7.70;;;4.00;99.90;;;;;;5025069;28;20129;-74
2024/02/09 06:58:40;;;;;;;21.60;8.10;;;4.00;99.90;;;;;;5021761;28;20144;-73
2024/02/09 07:01:10;;;;;;;17.15;8.15;;;4.00;99.90;;;;;;5024055;28;20106;-72
2024/02/09 07:03:37;;;;;;;13.80;6.90;;;4.00;99.90;;;;;;5004232;28;20029;-76
2024/02/09 07:06:07;;;;;;;16.17;7.20;;;4.00;99.90;;;;;;5022258;28;20116;-74
2024/02/09 07:08:42;;;;;;;14.98;7.05;;;4.00;99.90;;;;;;5024358;28;20087;-74
2024/02/09 07:11:12;;;;;;;15.65;7.22;;;4.10;99.90;;;;;;5025332;28;20057;-76
2024/02/09 07:13:39;;;;;;;16.30;7.53;;;4.10;99.90;;;;;;5023400;28;20025;-75
2024/02/09 07:16:05;;;;;;;12.10;6.43;;;4.10;99.90;;;;;;5002580;28;20026;-75
2024/02/09 07:18:33;;;;;;;14.48;6.85;;;4.10;99.90;;;;;;5022899;28;20024;-73
2024/02/09 07:20:59;;;;;;;15.13;7.57;;;4.20;99.90;;;;;;5002604;28;20026;-74
2024/02/09 07:23:27;;;;;;;13.13;6.90;;;4.10;99.90;;;;;;5002910;28;20503;-75
2024/02/09 07:25:54;;;;;;;15.35;7.07;;;4.20;99.90;;;;;;5022162;28;20029;-74
2024/02/09 07:28:21;;;;;;;16.13;6.97;;;4.20;99.90;;;;;;5025340;28;20068;-72
2024/02/09 07:30:47;;;;;;;16.35;7.38;;;4.20;99.90;;;;;;5020801;28;20041;-73
2024/02/09 07:33:14;;;;;;;15.48;7.03;;;4.20;99.90;;;;;;5020402;28;20076;-74
2024/02/09 07:35:40;;;;;;;17.95;7.75;;;4.20;99.90;;;;;;5004244;28;20056;-73
2024/02/09 07:38:06;;;;;;;16.25;7.90;;;4.20;99.90;;;;;;5024185;28;20025;-72
2024/02/09 07:40:31;;;;;;;17.13;8.40;;;4.30;99.90;;;;;;5019614;28;20026;-74
2024/02/09 07:42:57;;;;;;;15.80;7.72;;;4.30;99.90;;;;;;5021432;28;20036;-75
2024/02/09 07:45:22;;;;;;;14.02;7.53;;;4.30;99.90;;;;;;5022042;28;20029;-74
2024/02/09 07:47:49;;;;;;;17.30;7.55;;;4.30;99.90;;;;;;5007356;28;20036;-75
2024/02/09 07:50:15;;;;;;;14.68;7.28;;;4.30;99.90;;;;;;5025366;28;20025;-72
2024/02/09 07:52:40;;;;;;;15.82;7.97;;;4.30;99.90;;;;;;5022021;28;20033;-73
2024/02/09 07:55:07;;;;;;;17.02;8.60;;;4.40;99.90;;;;;;5022980;28;20029;-73
2024/02/09 07:57:35;;;;;;;14.82;7.53;;;4.40;99.90;;;;;;5020315;28;20042;-74
2024/02/09 08:00:04;;;;;;;20.13;8.70;;;4.40;99.90;;;;;;5019768;28;20034;-72
2024/02/09 08:02:31;;;;;;;18.52;8.57;;;4.40;99.90;;;;;;5019513;28;20051;-74
2024/02/09 08:04:56;;;;;;;19.13;8.93;;;4.40;99.90;;;;;;5020728;28;20037;-74
2024/02/09 08:07:23;;;;;;;18.42;8.02;;;4.40;99.90;;;;;;5018936;28;20066;-74
2024/02/09 08:09:49;;;;;;;16.52;8.57;;;4.40;99.90;;;;;;5022391;28;20033;-76
2024/02/09 08:12:15;;;;;;;20.02;8.50;;;4.40;99.90;;;;;;5018660;28;20040;-74
2024/02/09 08:14:40;;;;;;;15.10;7.80;;;4.50;99.90;;;;;;5019737;28;20065;-73
2024/02/09 08:17:08;;;;;;;18.15;8.10;;;4.50;99.90;;;;;;5003500;28;20133;-73
2024/02/09 08:19:34;;;;;;;16.20;8.27;;;4.50;99.90;;;;;;5020275;28;20038;-73
2024/02/09 08:22:01;;;;;;;16.92;8.38;;;4.60;99.90;;;;;;5002617;28;20032;-73
2024/02/09 08:24:27;;;;;;;18.20;8.98;;;4.60;99.90;;;;;;5020702;28;20685;-74
2024/02/09 08:26:53;;;;;;;16.77;8.52;;;4.60;99.90;;;;;;5022840;28;20048;-74
2024/02/09 08:29:22;;;;;;;17.52;8.20;;;4.60;99.90;;;;;;5002757;28;20743;-77
2024/02/09 08:31:48;;;;;;;19.77;8.70;;;4.70;99.90;;;;;;5021669;28;20030;-71
2024/02/09 08:34:13;;;;;;;21.10;9.18;;;4.70;99.90;;;;;;5019653;28;20033;-73
2024/02/09 08:36:39;;;;;;;16.60;8.48;;;4.70;99.90;;;;;;5020204;28;20045;-74
2024/02/09 08:39:05;;;;;;;21.23;9.57;;;4.70;99.90;;;;;;5002883;28;20441;-73
2024/02/09 08:41:30;;;;;;;21.27;9.38;;;4.80;99.90;;;;;;5020637;28;20098;-74
2024/02/09 08:43:56;;;;;;;18.75;9.38;;;4.80;99.90;;;;;;5037428;28;20494;-73
2024/02/09 08:46:25;;;;;;;20.50;9.10;;;4.80;99.90;;;;;;5020029;28;20021;-73
2024/02/09 08:48:50;;;;;;;21.90;10.15;;;4.90;99.90;;;;;;5020862;28;20573;-75
2024/02/09 08:51:16;;;;;;;18.63;9.23;;;4.90;99.90;;;;;;5021221;28;20043;-72
2024/02/09 08:53:42;;;;;;;21.80;9.82;;;4.90;99.90;;;;;;5001517;28;20039;-73
2024/02/09 08:56:09;;;;;;;21.17;9.63;;;5.00;99.90;;;;;;5003983;28;20025;-74
2024/02/09 08:58:35;;;;;;;20.40;9.90;;;5.00;99.90;;;;;;5001466;28;20087;-73
2024/02/09 09:01:01;;;;;;;22.08;10.10;;;5.00;99.90;;;;;;5002245;28;20029;-72
2024/02/09 09:03:27;;;;;;;25.52;10.93;;;5.10;99.90;;;;;;5019388;28;20033;-73
2024/02/09 09:05:53;;;;;;;20.30;9.80;;;5.10;99.90;;;;;;5021035;28;20168;-74
2024/02/09 09:08:19;;;;;;;22.73;9.88;;;5.10;99.90;;;;;;5019850;28;20120;-74
2024/02/09 09:10:45;;;;;;;23.50;11.55;;;5.20;99.90;;;;;;5020390;28;20055;-69
2024/02/09 09:13:10;;;;;;;21.02;10.32;;;5.20;99.90;;;;;;5022276;28;20527;-74
2024/02/09 09:15:43;;;;;;;22.60;10.88;;;5.20;99.90;;;;;;5022955;28;20017;-73
2024/02/09 09:18:09;;;;;;;23.67;10.10;;;5.20;99.90;;;;;;5017747;28;20105;-73
2024/02/09 09:20:35;;;;;;;27.08;10.85;;;5.30;99.90;;;;;;5021082;28;20037;-72
2024/02/09 09:23:01;;;;;;;20.38;9.85;;;5.30;99.90;;;;;;5004029;28;20029;-72
2024/02/09 09:25:29;;;;;;;28.10;13.30;;;5.40;99.90;;;;;;5019908;28;20036;-74
2024/02/09 09:27:56;;;;;;;;;;;5.40;99.90;;;;;;5020892;28;20418;-72
2024/02/09 09:30:22;;;;;;;22.50;10.38;;;5.40;99.90;;;;;;5019107;28;20373;-73
2024/02/09 09:32:47;;;;;;;22.52;10.63;;;5.40;99.90;;;;;;5017932;28;20071;-73
2024/02/09 09:35:14;;;;;;;20.90;10.40;;;5.50;99.90;;;;;;5019692;28;20029;-72
2024/02/09 09:37:40;;;;;;;22.35;11.23;;;5.50;99.90;;;;;;5019264;28;20041;-72
2024/02/09 09:40:08;;;;;;;23.42;11.48;;;5.60;99.90;;;;;;5017597;28;20037;-73
2024/02/09 09:42:35;;;;;;;32.28;12.05;;;5.60;99.90;;;;;;5020416;28;20544;-74
2024/02/09 09:45:03;;;;;;;24.83;12.60;;;5.70;99.90;;;;;;5000215;28;20037;-72
2024/02/09 09:47:31;;;;;;;26.20;12.30;;;5.70;99.90;;;;;;5019433;28;20541;-74
2024/02/09 09:49:57;;;;;;;27.80;13.02;;;5.80;99.90;;;;;;5023988;28;20727;-75
2024/02/09 09:52:33;;;;;;;29.30;12.80;;;5.80;99.90;;;;;;5024307;28;20132;-78
2024/02/09 09:55:00;;;;;;;29.52;13.05;;;5.90;99.90;;;;;;5004889;28;20043;-75
2024/02/09 09:57:25;;;;;;;26.60;12.02;;;6.00;99.90;;;;;;5022639;28;20068;-72
2024/02/09 09:59:53;;;;;;;30.45;13.52;;;6.00;99.90;;;;;;5024497;28;20025;-76
2024/02/09 10:02:19;;;;;;;31.23;13.75;;;6.10;99.90;;;;;;5023804;28;20119;-76
2024/02/09 10:04:48;;;;;;;27.88;12.85;;;6.10;99.90;;;;;;5023387;28;20034;-71
2024/02/09 10:07:15;;;;;;;29.00;12.88;;;6.20;99.90;;;;;;5004376;28;20035;-72
2024/02/09 10:09:41;;;;;;;30.00;12.82;;;6.20;99.90;;;;;;5025604;28;20033;-72
2024/02/09 10:12:10;;;;;;;29.75;13.05;;;6.30;99.90;;;;;;5024260;28;20108;-72
2024/02/09 10:14:42;;;;;;;30.13;12.65;;;6.30;99.90;;;;;;5005544;28;20033;-73
2024/02/09 10:17:11;;;;;;;26.25;12.27;;;6.40;99.90;;;;;;5023414;28;20033;-73
2024/02/09 10:19:41;;;;;;;25.27;11.60;;;6.40;99.90;;;;;;5023402;28;20033;-70
2024/02/09 10:22:07;;;;;;;30.48;13.18;;;6.40;99.90;;;;;;5023106;28;20029;-74
2024/02/09 10:24:32;;;;;;;25.45;12.25;;;6.40;99.90;;;;;;5024940;28;20025;-71
2024/02/09 10:26:59;;;;;;;25.75;12.20;;;6.50;99.90;;;;;;5020889;28;20622;-70
2024/02/09 10:29:28;;;;;;;30.35;13.70;;;6.50;99.90;;;;;;5024099;28;20080;-73
2024/02/09 10:31:54;;;;;;;23.98;11.73;;;6.60;99.90;;;;;;5024886;28;20185;-71
2024/02/09 10:34:20;;;;;;;28.75;13.00;;;6.60;99.90;;;;;;5022083;28;20033;-70
2024/02/09 10:36:46;;;;;;;28.38;13.40;;;6.70;99.90;;;;;;5037546;28;20681;-70
2024/02/09 10:39:12;;;;;;;31.80;12.73;;;6.70;99.90;;;;;;5021890;28;20481;-72
2024/02/09 10:41:39;;;;;;;32.75;13.73;;;6.80;99.90;;;;;;5021615;28;20037;-71
2024/02/09 10:44:08;;;;;;;30.35;12.90;;;6.80;99.90;;;;;;5021538;28;20075;-71
2024/02/09 10:46:38;;;;;;;28.58;13.02;;;6.90;99.90;;;;;;5024012;28;20033;-72
2024/02/09 10:49:09;;;;;;;24.10;12.23;;;6.90;99.90;;;;;;5016600;28;20188;-72
2024/02/09 10:51:36;;;;;;;31.13;13.27;;;7.00;99.90;;;;;;5004577;28;20059;-71
2024/02/09 10:54:30;;;;;;;24.75;11.27;;;7.00;99.90;;;;;;5020728;28;20064;-74
2024/02/09 10:56:57;;;;;;;27.58;12.63;;;7.00;99.90;;;;;;5023281;28;20579;-75
2024/02/09 10:59:23;;;;;;;26.33;13.40;;;7.10;99.90;;;;;;5020226;28;20076;-70
2024/02/09 11:01:50;;;;;;;28.45;12.77;;;7.10;99.90;;;;;;5023549;28;20037;-73
2024/02/09 11:04:15;;;;;;;33.83;13.10;;;7.20;99.90;;;;;;5020991;28;20026;-72
2024/02/09 11:06:43;;;;;;;28.75;12.40;;;7.20;99.90;;;;;;5022553;28;20565;-72
2024/02/09 11:09:10;;;;;;;26.88;12.55;;;7.20;99.90;;;;;;5021500;28;20033;-70
2024/02/09 11:11:39;;;;;;;24.65;11.57;;;7.30;99.90;;;;;;5019626;28;20030;-71
2024/02/09 11:14:09;;;;;;;32.83;12.63;;;7.30;99.90;;;;;;5002689;28;20033;-74
2024/02/09 11:16:48;;;;;;;26.08;12.73;;;7.40;99.90;;;;;;5018965;28;20037;-73
2024/02/09 11:19:16;;;;;;;24.98;12.32;;;7.50;99.90;;;;;;5022299;28;20144;-71
2024/02/09 11:21:52;;;;;;;28.88;13.35;;;7.60;99.90;;;;;;5018226;28;20022;-72
2024/02/09 11:24:20;;;;;;;29.70;13.35;;;7.70;99.90;;;;;;5022407;28;20053;-71
2024/02/09 11:26:49;;;;;;;29.83;13.57;;;7.80;99.90;;;;;;5004131;28;20125;-71
2024/02/09 11:29:18;;;;;;;32.65;14.52;;;7.90;99.90;;;;;;5022349;28;20037;-73
2024/02/09 11:31:50;;;;;;;27.23;13.90;;;8.00;99.90;;;;;;5022384;28;20034;-72
2024/02/09 11:34:24;;;;;;;35.80;13.50;;;8.20;99.90;;;;;;5019901;28;20033;-72
2024/02/09 11:36:52;;;;;;;33.85;14.40;;;8.40;99.90;;;;;;5023232;28;20021;-71
2024/02/09 11:39:22;;;;;;;31.33;13.48;;;8.50;99.90;;;;;;5023594;28;20037;-71
2024/02/09 11:41:48;;;;;;;26.40;12.70;;;8.60;99.90;;;;;;5022874;28;20099;-70
2024/02/09 11:44:14;;;;;;;27.75;12.65;;;8.60;99.90;;;;;;5023015;28;20104;-71
2024/02/09 11:46:42;;;;;;;28.80;12.52;;;8.70;99.90;;;;;;5021218;28;20029;-72
2024/02/09 11:49:07;;;;;;;27.50;13.02;;;8.80;99.90;;;;;;5023071;28;20048;-71
2024/02/09 11:51:37;;;;;;;28.83;11.10;;;9.00;99.90;;;;;;5005992;28;20037;-71
2024/02/09 11:54:10;;;;;;;29.17;10.70;;;9.00;99.90;;;;;;5021531;28;20029;-72
2024/02/09 11:56:37;;;;;;;24.38;10.95;;;9.20;99.90;;;;;;5022782;28;20029;-72
2024/02/09 11:59:05;;;;;;;25.55;10.70;;;9.30;99.90;;;;;;5023225;28;20052;-71
2024/02/09 12:01:32;;;;;;;15.63;8.45;;;9.40;99.90;;;;;;5021926;28;20028;-73
2024/02/09 12:03:59;;;;;;;15.40;7.65;;;9.50;99.90;;;;;;5021168;28;20115;-71
2024/02/09 12:06:27;;;;;;;14.75;7.50;;;9.60;99.90;;;;;;5023831;28;20573;-72
2024/02/09 12:08:53;;;;;;;13.23;6.97;;;9.70;99.90;;;;;;5005639;28;20030;-72
2024/02/09 12:11:22;;;;;;;9.68;5.60;;;9.80;99.90;;;;;;5014662;28;20559;-72
2024/02/09 12:13:48;;;;;;;14.07;4.88;;;9.90;99.90;;;;;;5018402;28;20034;-71
2024/02/09 12:16:17;;;;;;;11.07;3.97;;;10.00;99.90;;;;;;5017818;28;20045;-72
2024/02/09 12:18:45;;;;;;;8.93;4.22;;;10.20;99.90;;;;;;5030860;28;20675;-71
2024/02/09 12:21:11;;;;;;;10.85;3.97;;;10.30;99.90;;;;;;5021099;28;20129;-73
2024/02/09 12:23:37;;;;;;;5.72;3.65;;;10.40;99.90;;;;;;5020079;28;20477;-72
2024/02/09 12:26:06;;;;;;;9.27;3.70;;;10.50;99.90;;;;;;5021680;28;20035;-73
2024/02/09 12:28:33;;;;;;;5.55;3.20;;;10.60;99.90;;;;;;5020816;28;20091;-74
2024/02/09 12:30:58;;;;;;;3.27;2.30;;;10.70;99.90;;;;;;5022278;28;20033;-75
2024/02/09 12:33:24;;;;;;;6.72;1.80;;;10.90;99.90;;;;;;5021741;28;20292;-74
2024/02/09 12:35:50;;;;;;;7.13;2.20;;;10.90;99.90;;;;;;5019650;28;20541;-73
2024/02/09 12:38:20;;;;;;;2.83;1.80;;;11.00;99.90;;;;;;5022816;28;20675;-72
2024/02/09 12:40:46;;;;;;;6.60;2.00;;;11.10;99.90;;;;;;5022224;28;20089;-72
2024/02/09 12:43:13;;;;;;;3.95;1.42;;;11.20;99.90;;;;;;5002757;28;20041;-73
2024/02/09 12:45:39;;;;;;;4.13;1.45;;;11.30;99.90;;;;;;5018939;28;20021;-73
2024/02/09 12:48:06;;;;;;;5.20;1.50;;;11.40;99.90;;;;;;5020410;28;20120;-73
2024/02/09 12:50:33;;;;;;;1.98;1.25;;;11.40;99.90;;;;;;5021407;28;20088;-73
2024/02/09 12:52:59;;;;;;;3.25;1.70;;;11.50;99.90;;;;;;5020614;28;20120;-73
2024/02/09 12:55:25;;;;;;;3.67;1.42;;;11.50;99.90;;;;;;5022206;28;20108;-72
2024/02/09 12:57:54;;;;;;;8.50;1.70;;;11.60;99.90;;;;;;5018892;28;20737;-73
2024/02/09 13:00:21;;;;;;;4.40;1.48;;;11.70;99.90;;;;;;5018094;28;20390;-74
2024/02/09 13:02:47;;;;;;;3.38;1.30;;;11.70;99.90;;;;;;5023015;28;20111;-73
2024/02/09 13:05:12;;;;;;;3.40;1.17;;;11.80;99.90;;;;;;5017158;28;20522;-73
2024/02/09 13:07:38;;;;;;;4.40;1.33;;;11.90;99.90;;;;;;5023193;28;20057;-73
2024/02/09 13:10:06;;;;;;;2.90;1.40;;;11.90;99.90;;;;;;5020041;28;20068;-74
2024/02/09 13:12:36;;;;;;;5.95;1.35;;;11.90;99.90;;;;;;5021884;28;20021;-73
2024/02/09 13:15:04;;;;;;;5.80;1.08;;;12.00;99.90;;;;;;5023290;28;20038;-72
2024/02/09 13:17:30;;;;;;;6.07;1.35;;;12.00;99.90;;;;;;5023015;28;20038;-72
2024/02/09 13:19:55;;;;;;;7.88;1.67;;;12.00;99.90;;;;;;5020895;28;20694;-73
2024/02/09 13:22:21;;;;;;;4.32;1.80;;;12.10;99.90;;;;;;5022569;28;20073;-73
2024/02/09 13:24:47;;;;;;;6.30;1.70;;;12.20;99.90;;;;;;5020198;28;20217;-72
2024/02/09 13:27:13;;;;;;;2.90;1.58;;;12.20;99.90;;;;;;5021579;28;20037;-73
2024/02/09 13:29:38;;;;;;;5.28;1.83;;;12.20;99.90;;;;;;5020100;28;20114;-72
2024/02/09 13:32:04;;;;;;;7.85;1.75;;;12.30;99.90;;;;;;5019759;28;20495;-73
2024/02/09 13:34:30;;;;;;;3.20;1.40;;;12.40;99.90;;;;;;5015037;28;20073;-72
2024/02/09 13:36:59;;;;;;;5.45;1.60;;;12.50;99.90;;;;;;5024383;28;20060;-73
2024/02/09 13:39:26;;;;;;;4.45;1.58;;;12.60;99.90;;;;;;5023741;28;20261;-73
2024/02/09 13:41:53;;;;;;;2.67;1.20;;;12.80;99.90;;;;;;5017915;28;20045;-73
2024/02/09 13:44:18;;;;;;;5.60;2.10;;;13.00;99.90;;;;;;5019200;28;20060;-71
2024/02/09 13:46:44;;;;;;;5.95;1.55;;;13.10;99.90;;;;;;5018134;28;20478;-72
2024/02/09 13:49:10;;;;;;;6.47;1.55;;;13.10;99.90;;;;;;5025195;28;20037;-73
2024/02/09 13:51:37;;;;;;;2.63;1.27;;;13.20;99.90;;;;;;5004562;28;20029;-72
2024/02/09 13:54:02;;;;;;;6.63;1.95;;;13.20;99.90;;;;;;5018567;28;20044;-74
2024/02/09 13:56:28;;;;;;;4.00;1.60;;;13.30;99.90;;;;;;4999700;28;20034;-72
2024/02/09 13:58:54;;;;;;;4.03;1.40;;;13.20;99.90;;;;;;5018036;28;20230;-72
2024/02/09 14:01:22;;;;;;;3.33;1.38;;;13.20;99.90;;;;;;5016197;28;20479;-72
2024/02/09 14:03:51;;;;;;;6.40;1.65;;;13.20;99.90;;;;;;5022271;28;20643;-75
2024/02/09 14:06:18;;;;;;;5.93;1.60;;;13.20;99.90;;;;;;5005609;28;20026;-73
2024/02/09 14:08:47;;;;;;;5.60;1.58;;;13.20;99.90;;;;;;5038020;28;20140;-74
2024/02/09 14:11:15;;;;;;;2.13;1.30;;;13.20;99.90;;;;;;5024675;28;20037;-74
2024/02/09 14:13:45;;;;;;;2.47;1.60;;;13.20;99.90;;;;;;5026954;28;20022;-74
2024/02/09 14:16:10;;;;;;;3.50;1.58;;;13.30;99.90;;;;;;5021171;28;20037;-74
2024/02/09 14:18:36;;;;;;;1.95;1.20;;;13.30;99.90;;;;;;5023043;28;20021;-73
2024/02/09 14:21:05;;;;;;;3.45;1.25;;;13.40;99.90;;;;;;5019949;28;20095;-72
2024/02/09 14:23:32;;;;;;;2.85;1.00;;;13.40;99.90;;;;;;5018219;28;20033;-76
2024/02/09 14:25:58;;;;;;;4.53;1.57;;;13.40;99.90;;;;;;5019626;28;20029;-72
2024/02/09 14:28:24;;;;;;;5.82;1.60;;;13.40;99.90;;;;;;5022566;28;20034;-72
2024/02/09 14:30:50;;;;;;;6.15;1.65;;;13.30;99.90;;;;;;5021438;28;20017;-75
2024/02/09 14:33:16;;;;;;;3.00;1.20;;;13.20;99.90;;;;;;5022343;28;20035;-76